Time;durP1;ratioP1;P1;durP2;ratioP2;P2;SDS_P1;SDS_P2;PMS_P1;PMS_P2;Temp;Humidity;BMP_temperature;BMP_pressure;BME280_temperature;BME280_humidity;BME280_pressure;Samples;Min_cycle;Max_cycle;Signal;HPM_P1;HPM_P2
2022/01/27 00:05:02;;;;;;;34.90;18.73;;;6.00;99.90;;;;;;5005092;28;20182;-81
2022/01/27 00:07:28;;;;;;;32.85;17.40;;;6.10;99.90;;;;;;4979377;28;20045;-81
2022/01/27 00:12:38;;;;;;;33.17;16.42;;;6.10;99.90;;;;;;4996681;28;20077;-81
2022/01/27 00:15:10;;;;;;;36.28;17.60;;;6.10;99.90;;;;;;4984975;28;20037;-81
2022/01/27 00:17:41;;;;;;;35.05;17.50;;;6.10;99.90;;;;;;5004068;28;20034;-81
2022/01/27 00:20:08;;;;;;;29.98;16.52;;;6.10;99.90;;;;;;5014290;28;20485;-81
2022/01/27 00:22:34;;;;;;;35.45;16.45;;;6.10;99.90;;;;;;4974628;28;20494;-81
2022/01/27 00:25:02;;;;;;;35.83;15.68;;;6.10;99.90;;;;;;4976492;28;20126;-80
2022/01/27 00:27:28;;;;;;;33.15;17.30;;;6.10;99.90;;;;;;4974883;28;20474;-80
2022/01/27 00:29:53;;;;;;;30.40;17.08;;;6.10;99.90;;;;;;4979018;28;20133;-81
2022/01/27 00:32:19;;;;;;;32.97;17.23;;;6.10;99.90;;;;;;5002735;28;20312;-81
2022/01/27 00:34:45;;;;;;;33.58;17.88;;;6.20;99.90;;;;;;5008878;28;20073;-81
2022/01/27 00:37:10;;;;;;;33.05;17.85;;;6.10;99.90;;;;;;4976890;28;20081;-80
2022/01/27 00:39:36;;;;;;;33.38;16.55;;;6.20;99.90;;;;;;4976674;28;20476;-80
2022/01/27 00:42:02;;;;;;;30.48;17.08;;;6.20;99.90;;;;;;5006512;28;20065;-80
2022/01/27 00:44:27;;;;;;;33.58;17.50;;;6.20;99.90;;;;;;5004679;28;20057;-81
2022/01/27 00:46:53;;;;;;;40.33;18.23;;;6.20;99.90;;;;;;4980723;28;20468;-81
2022/01/27 00:49:19;;;;;;;31.90;17.08;;;6.10;99.90;;;;;;4988973;28;20044;-81
2022/01/27 00:51:46;;;;;;;33.95;17.85;;;6.10;99.90;;;;;;4990568;28;20104;-81
2022/01/27 00:54:22;;;;;;;31.67;16.95;;;6.10;99.90;;;;;;4998643;28;20073;-81
2022/01/27 00:57:03;;;;;;;37.30;17.58;;;6.10;99.90;;;;;;4979572;28;20100;-81
2022/01/27 00:59:38;;;;;;;34.30;18.17;;;6.00;99.90;;;;;;4976842;28;20042;-81
2022/01/27 01:05:01;;;;;;;36.80;17.52;;;6.10;99.90;;;;;;5000213;28;20903;-81
2022/01/27 01:07:32;;;;;;;33.25;17.23;;;6.00;99.90;;;;;;4984158;28;20041;-81
2022/01/27 01:15:32;;;;;;;40.17;17.98;;;6.00;99.90;;;;;;4993653;28;20529;-81
2022/01/27 01:18:08;;;;;;;36.25;18.40;;;6.10;99.90;;;;;;4987325;28;20037;-81
2022/01/27 01:20:53;;;;;;;35.95;18.75;;;6.00;99.90;;;;;;4982878;28;20034;-81
2022/01/27 01:31:51;;;;;;;36.85;17.63;;;5.90;99.90;;;;;;4995517;28;20105;-81
2022/01/27 01:34:26;;;;;;;41.55;18.02;;;5.90;99.90;;;;;;5013505;28;20230;-81
2022/01/27 01:36:56;;;;;;;33.88;16.70;;;5.80;99.90;;;;;;4977818;28;20049;-81
2022/01/27 01:39:31;;;;;;;37.53;18.17;;;5.80;99.90;;;;;;4997657;28;20046;-81
2022/01/27 01:41:58;;;;;;;38.13;18.42;;;5.80;99.90;;;;;;4998298;28;20145;-81
2022/01/27 01:44:24;;;;;;;42.13;19.48;;;5.80;99.90;;;;;;4999974;28;20046;-81
2022/01/27 01:46:50;;;;;;;38.65;18.95;;;5.80;99.90;;;;;;4989717;28;20041;-80
2022/01/27 01:49:15;;;;;;;32.75;18.08;;;5.80;99.90;;;;;;4980777;28;20038;-81
2022/01/27 01:51:43;;;;;;;36.80;17.98;;;5.70;99.90;;;;;;4973438;28;20101;-80
2022/01/27 01:54:09;;;;;;;35.33;17.40;;;5.70;99.90;;;;;;4978323;28;20386;-81
2022/01/27 01:56:38;;;;;;;37.00;17.02;;;5.70;99.90;;;;;;4993045;28;20038;-80
2022/01/27 01:59:05;;;;;;;34.50;18.83;;;5.70;99.90;;;;;;4979385;28;20050;-81
2022/01/27 02:01:32;;;;;;;32.78;17.63;;;5.70;99.90;;;;;;4979855;28;20509;-81
2022/01/27 02:04:02;;;;;;;37.28;19.13;;;5.70;99.90;;;;;;4980004;28;20425;-81
2022/01/27 02:06:34;;;;;;;36.25;18.65;;;5.70;99.90;;;;;;4993906;28;20030;-80
2022/01/27 02:20:01;;;;;;;35.33;20.92;;;5.80;99.90;;;;;;5004447;28;20053;-81
2022/01/27 02:22:26;;;;;;;34.20;17.92;;;5.80;99.90;;;;;;4994072;28;20053;-81
2022/01/27 02:24:53;;;;;;;30.20;18.20;;;5.90;99.90;;;;;;4993045;28;20034;-81
2022/01/27 02:27:20;;;;;;;36.67;19.42;;;5.90;99.90;;;;;;4994374;28;20084;-81
2022/01/27 02:29:46;;;;;;;32.50;17.75;;;6.00;99.90;;;;;;4991735;28;20042;-81
2022/01/27 02:32:14;;;;;;;35.17;17.85;;;6.00;99.90;;;;;;5004678;28;20033;-81
2022/01/27 02:34:41;;;;;;;37.63;20.58;;;6.10;99.90;;;;;;4976346;28;20038;-81
2022/01/27 02:37:09;;;;;;;35.00;17.45;;;6.10;99.90;;;;;;4984226;28;20046;-81
2022/01/27 02:39:35;;;;;;;35.25;18.67;;;6.10;99.90;;;;;;4978113;28;20111;-81
2022/01/27 02:42:01;;;;;;;34.25;19.52;;;6.10;99.90;;;;;;4999891;28;20305;-81
2022/01/27 02:44:47;;;;;;;39.17;21.00;;;6.10;99.90;;;;;;5000124;28;20978;-80
2022/01/27 02:47:15;;;;;;;35.10;20.48;;;6.10;99.90;;;;;;4989606;28;20049;-81
2022/01/27 02:49:41;;;;;;;32.20;19.52;;;6.10;99.90;;;;;;5006076;28;20396;-81
2022/01/27 02:52:08;;;;;;;35.88;19.80;;;6.20;99.90;;;;;;5015112;28;20372;-80
2022/01/27 02:54:34;;;;;;;37.78;19.60;;;6.20;99.90;;;;;;5015567;28;20054;-81
2022/01/27 02:57:00;;;;;;;37.97;21.55;;;6.20;99.90;;;;;;5004922;28;20060;-81
2022/01/27 02:59:25;;;;;;;42.78;22.23;;;6.20;99.90;;;;;;5003760;28;20041;-81
2022/01/27 03:01:52;;;;;;;33.42;18.50;;;6.20;99.90;;;;;;5001784;28;20049;-81
2022/01/27 03:04:18;;;;;;;36.22;19.50;;;6.20;99.90;;;;;;4977581;28;20116;-80
2022/01/27 03:06:45;;;;;;;38.97;19.40;;;6.20;99.90;;;;;;5001139;28;20686;-81
2022/01/27 03:09:12;;;;;;;39.35;21.98;;;6.20;99.90;;;;;;4995829;28;20085;-80
2022/01/27 03:11:47;;;;;;;33.58;18.67;;;6.20;99.90;;;;;;4984865;28;20045;-81
2022/01/27 03:14:16;;;;;;;35.60;20.30;;;6.20;99.90;;;;;;4986218;28;20045;-80
2022/01/27 03:16:42;;;;;;;34.28;20.30;;;6.20;99.90;;;;;;4998266;28;20429;-81
2022/01/27 03:19:09;;;;;;;34.90;19.23;;;6.20;99.90;;;;;;4993137;28;20046;-81
2022/01/27 03:21:35;;;;;;;32.25;18.13;;;6.20;99.90;;;;;;4979355;28;20037;-81
2022/01/27 03:24:01;;;;;;;33.83;19.33;;;6.30;99.90;;;;;;4979172;28;20402;-81
2022/01/27 03:26:28;;;;;;;34.63;18.73;;;6.30;99.90;;;;;;4996300;28;20052;-80
2022/01/27 03:28:53;;;;;;;31.23;18.42;;;6.30;99.90;;;;;;4987356;28;20038;-81
2022/01/27 03:31:20;;;;;;;30.73;16.95;;;6.30;99.90;;;;;;4975592;28;20052;-81
2022/01/27 03:33:46;;;;;;;36.85;19.55;;;6.30;99.90;;;;;;5002510;28;20050;-81
2022/01/27 03:36:12;;;;;;;37.13;19.55;;;6.30;99.90;;;;;;5000937;28;20630;-81
2022/01/27 03:38:38;;;;;;;38.78;19.77;;;6.30;99.90;;;;;;4975690;28;20054;-81
2022/01/27 03:41:06;;;;;;;28.85;17.48;;;6.30;99.90;;;;;;4986941;28;20676;-81
2022/01/27 03:43:33;;;;;;;35.22;20.27;;;6.30;99.90;;;;;;5004385;28;20188;-81
2022/01/27 03:45:59;;;;;;;35.22;20.33;;;6.30;99.90;;;;;;4999280;28;20234;-81
2022/01/27 03:48:25;;;;;;;30.60;17.38;;;6.30;99.90;;;;;;5005081;28;20095;-81
2022/01/27 03:50:51;;;;;;;34.80;20.38;;;6.30;99.90;;;;;;4996251;28;20405;-81
2022/01/27 03:53:16;;;;;;;39.88;19.88;;;6.30;99.90;;;;;;4998196;28;20041;-81
2022/01/27 03:55:43;;;;;;;34.88;18.48;;;6.30;99.90;;;;;;4988393;28;20065;-81
2022/01/27 03:58:09;;;;;;;37.80;19.35;;;6.30;99.90;;;;;;4996537;28;20549;-80
2022/01/27 04:00:35;;;;;;;33.28;19.98;;;6.30;99.90;;;;;;4977911;28;20038;-81
2022/01/27 04:03:05;;;;;;;35.67;19.00;;;6.30;99.90;;;;;;4983153;28;20042;-80
2022/01/27 04:05:37;;;;;;;34.15;19.52;;;6.30;99.90;;;;;;4975471;28;20048;-81
2022/01/27 04:08:08;;;;;;;39.70;19.73;;;6.30;99.90;;;;;;4981376;28;20120;-81
2022/01/27 04:10:34;;;;;;;33.33;17.63;;;6.30;99.90;;;;;;4998620;28;20042;-80
2022/01/27 04:13:01;;;;;;;32.80;16.90;;;6.30;99.90;;;;;;4993657;28;20072;-81
2022/01/27 04:15:26;;;;;;;32.75;18.05;;;6.30;99.90;;;;;;4982992;28;20033;-81
2022/01/27 04:17:55;;;;;;;37.15;17.65;;;6.40;99.90;;;;;;5002601;28;20041;-80
2022/01/27 04:20:24;;;;;;;33.03;17.67;;;6.40;99.90;;;;;;4978909;28;20041;-81
2022/01/27 04:22:50;;;;;;;37.38;18.77;;;6.40;99.90;;;;;;4976098;28;20754;-81
2022/01/27 04:25:16;;;;;;;34.80;18.00;;;6.40;99.90;;;;;;4982501;28;20037;-81
2022/01/27 04:27:46;;;;;;;40.40;20.00;;;6.40;99.90;;;;;;5013048;28;20124;-81
2022/01/27 04:30:18;;;;;;;40.45;19.60;;;6.40;99.90;;;;;;5001518;28;20049;-82
2022/01/27 04:32:50;;;;;;;39.58;18.65;;;6.40;99.90;;;;;;4983767;28;20491;-81
2022/01/27 04:35:19;;;;;;;36.35;19.05;;;6.40;99.90;;;;;;4983737;28;20405;-81
2022/01/27 04:38:13;;;;;;;33.95;18.70;;;6.40;99.90;;;;;;4991647;28;20064;-81
2022/01/27 04:45:44;;;;;;;32.38;15.73;;;6.50;99.90;;;;;;4992144;28;20123;-81
2022/01/27 04:48:13;;;;;;;35.40;17.65;;;6.50;99.90;;;;;;4985662;28;20117;-81
2022/01/27 04:50:40;;;;;;;34.13;17.88;;;6.50;99.90;;;;;;5000950;28;20370;-81
2022/01/27 04:53:09;;;;;;;40.05;18.33;;;6.50;99.90;;;;;;4994164;28;20091;-81
2022/01/27 04:55:35;;;;;;;39.38;17.80;;;6.50;99.90;;;;;;4997227;28;20438;-81
2022/01/27 05:00:58;;;;;;;38.53;19.23;;;6.50;99.90;;;;;;4993496;28;20232;-80
2022/01/27 05:03:35;;;;;;;37.45;18.08;;;6.50;99.90;;;;;;4987758;28;20485;-81
2022/01/27 05:06:01;;;;;;;37.38;18.63;;;6.50;99.90;;;;;;4974563;28;20407;-81
2022/01/27 05:08:27;;;;;;;36.72;16.67;;;6.50;99.90;;;;;;5011754;28;20044;-81
2022/01/27 05:11:08;;;;;;;35.35;17.70;;;6.50;99.90;;;;;;5005717;28;20488;-81
2022/01/27 05:13:38;;;;;;;34.15;18.30;;;6.50;99.90;;;;;;4993122;28;20074;-81
2022/01/27 05:16:04;;;;;;;32.65;16.65;;;6.50;99.90;;;;;;4982808;28;20099;-81
2022/01/27 05:18:30;;;;;;;34.47;17.85;;;6.50;99.90;;;;;;5006685;28;20301;-81
2022/01/27 05:20:56;;;;;;;35.38;17.58;;;6.50;99.90;;;;;;5001525;28;20680;-81
2022/01/27 05:23:22;;;;;;;38.15;18.50;;;6.50;99.90;;;;;;4989705;28;20025;-80
2022/01/27 05:25:47;;;;;;;36.33;18.73;;;6.40;99.90;;;;;;4991271;28;20041;-81
2022/01/27 05:28:13;;;;;;;42.20;19.08;;;6.40;99.90;;;;;;4987940;28;20045;-81
2022/01/27 05:30:38;;;;;;;33.25;16.63;;;6.40;99.90;;;;;;4973867;28;20056;-81
2022/01/27 05:33:04;;;;;;;38.30;17.58;;;6.40;99.90;;;;;;4998884;28;20505;-81
2022/01/27 05:35:30;;;;;;;39.00;17.08;;;6.40;99.90;;;;;;4999392;28;20030;-81
2022/01/27 05:37:55;;;;;;;41.08;17.88;;;6.40;99.90;;;;;;4983681;28;20049;-81
2022/01/27 05:40:21;;;;;;;37.97;19.13;;;6.40;99.90;;;;;;4993767;28;20045;-81
2022/01/27 05:42:47;;;;;;;41.15;19.30;;;6.40;99.90;;;;;;4998326;28;20040;-81
2022/01/27 05:45:13;;;;;;;37.47;19.27;;;6.40;99.90;;;;;;4980893;28;20445;-81
2022/01/27 05:47:39;;;;;;;40.08;20.17;;;6.40;99.90;;;;;;5002872;28;20041;-81
2022/01/27 05:50:05;;;;;;;40.60;19.45;;;6.40;99.90;;;;;;4979540;28;20034;-81
2022/01/27 05:52:31;;;;;;;38.25;17.30;;;6.40;99.90;;;;;;4979973;28;20062;-81
2022/01/27 05:54:57;;;;;;;38.60;18.45;;;6.40;99.90;;;;;;5000657;28;20042;-81
2022/01/27 05:57:23;;;;;;;33.10;18.05;;;6.40;99.90;;;;;;5001690;28;20065;-80
2022/01/27 05:59:49;;;;;;;38.75;17.10;;;6.40;99.90;;;;;;4990314;28;20040;-81
2022/01/27 06:02:14;;;;;;;45.83;18.08;;;6.50;99.90;;;;;;5000384;28;20471;-80
2022/01/27 06:04:40;;;;;;;35.72;16.92;;;6.50;99.90;;;;;;4996732;28;20038;-81
2022/01/27 06:07:06;;;;;;;34.47;17.63;;;6.40;99.90;;;;;;4996771;28;20037;-80
2022/01/27 06:09:31;;;;;;;40.00;16.90;;;6.50;99.90;;;;;;4980094;28;20068;-80
2022/01/27 06:11:57;;;;;;;39.13;16.52;;;6.50;99.90;;;;;;4988720;28;20050;-80
2022/01/27 06:14:23;;;;;;;30.23;16.17;;;6.50;99.90;;;;;;4995749;28;20095;-80
2022/01/27 06:16:49;;;;;;;35.15;17.02;;;6.50;99.90;;;;;;4999941;28;20463;-80
2022/01/27 06:19:14;;;;;;;39.40;17.10;;;6.60;99.90;;;;;;4999637;28;20638;-80
2022/01/27 06:21:42;;;;;;;34.95;15.68;;;6.50;99.90;;;;;;4978159;28;20029;-80
2022/01/27 06:24:08;;;;;;;39.95;17.38;;;6.60;99.90;;;;;;5003336;28;20153;-80
2022/01/27 06:26:34;;;;;;;27.92;15.68;;;6.60;99.90;;;;;;4982746;28;20669;-81
2022/01/27 06:29:00;;;;;;;37.22;17.08;;;6.60;99.90;;;;;;4997217;28;20259;-81
2022/01/27 06:31:26;;;;;;;34.70;17.02;;;6.60;99.90;;;;;;4998811;28;20057;-80
2022/01/27 06:33:54;;;;;;;32.45;15.98;;;6.70;99.90;;;;;;5006719;28;20106;-80
2022/01/27 06:36:20;;;;;;;38.53;16.42;;;6.70;99.90;;;;;;4971616;28;20030;-81
2022/01/27 06:38:46;;;;;;;31.75;15.23;;;6.60;99.90;;;;;;4993568;28;20100;-80
2022/01/27 06:41:13;;;;;;;33.05;16.33;;;6.70;99.90;;;;;;4979018;28;20117;-80
2022/01/27 06:43:39;;;;;;;34.53;16.25;;;6.70;99.90;;;;;;4992162;28;20081;-81
2022/01/27 06:46:04;;;;;;;32.72;15.35;;;6.70;99.90;;;;;;4996264;28;20454;-81
2022/01/27 06:48:30;;;;;;;33.25;15.05;;;6.70;99.90;;;;;;5012128;28;20425;-81
2022/01/27 06:50:56;;;;;;;35.95;15.70;;;6.70;99.90;;;;;;4996584;28;20610;-80
2022/01/27 06:53:22;;;;;;;30.75;14.75;;;6.80;99.90;;;;;;4977404;28;20066;-80
2022/01/27 06:55:49;;;;;;;29.70;14.13;;;6.80;99.90;;;;;;4974889;28;20065;-81
2022/01/27 06:58:15;;;;;;;27.33;12.70;;;6.80;99.90;;;;;;4993210;28;20521;-81
2022/01/27 07:00:42;;;;;;;26.88;13.68;;;6.80;99.90;;;;;;4975657;28;20494;-80
2022/01/27 07:03:07;;;;;;;29.30;13.90;;;6.80;99.90;;;;;;4995935;28;20041;-81
2022/01/27 07:05:33;;;;;;;29.00;12.63;;;6.90;99.90;;;;;;4977239;28;20389;-80
2022/01/27 07:08:00;;;;;;;29.00;14.80;;;6.90;99.90;;;;;;4998308;28;20480;-81
2022/01/27 07:10:26;;;;;;;26.10;13.00;;;6.90;99.90;;;;;;4999027;28;20048;-81
2022/01/27 07:12:51;;;;;;;28.95;14.10;;;7.00;99.90;;;;;;4996806;28;20042;-80
2022/01/27 07:15:17;;;;;;;28.98;13.07;;;7.00;99.90;;;;;;4995450;28;20072;-80
2022/01/27 07:17:43;;;;;;;29.25;12.60;;;7.00;99.90;;;;;;4984745;28;20120;-81
2022/01/27 07:20:09;;;;;;;27.67;13.25;;;7.00;99.90;;;;;;4991600;28;20034;-80
2022/01/27 07:22:36;;;;;;;25.95;13.00;;;7.10;99.90;;;;;;4997363;28;20442;-81
2022/01/27 07:25:04;;;;;;;20.23;10.75;;;7.10;99.90;;;;;;4978229;28;20073;-81
2022/01/27 07:27:31;;;;;;;22.50;11.52;;;7.10;99.90;;;;;;4989214;28;20046;-81
2022/01/27 07:29:58;;;;;;;24.55;11.13;;;7.10;99.90;;;;;;5000896;28;20088;-81
2022/01/27 07:32:23;;;;;;;21.88;10.55;;;7.20;99.90;;;;;;5006148;28;20033;-81
2022/01/27 07:34:49;;;;;;;20.48;10.55;;;7.20;99.90;;;;;;4995105;28;20045;-81
2022/01/27 07:37:15;;;;;;;19.83;11.38;;;7.20;99.90;;;;;;4978331;28;20050;-81
2022/01/27 07:39:41;;;;;;;19.90;10.85;;;7.20;99.90;;;;;;4995021;28;20301;-81
2022/01/27 07:42:07;;;;;;;22.17;11.63;;;7.20;99.90;;;;;;4981556;28;20042;-81
2022/01/27 07:44:32;;;;;;;23.92;10.25;;;7.20;99.90;;;;;;5017799;28;20034;-81
2022/01/27 07:46:58;;;;;;;22.50;9.80;;;7.40;99.90;;;;;;5004264;28;20540;-81
2022/01/27 07:49:24;;;;;;;17.05;9.88;;;7.40;99.90;;;;;;4983932;28;20045;-81
2022/01/27 07:51:50;;;;;;;23.42;10.15;;;7.40;99.90;;;;;;4983182;28;20046;-81
2022/01/27 07:54:16;;;;;;;23.38;11.20;;;7.40;99.90;;;;;;4975536;28;20057;-81
2022/01/27 07:56:42;;;;;;;19.85;8.52;;;7.50;99.90;;;;;;4989339;28;20060;-81
2022/01/27 07:59:07;;;;;;;22.60;11.07;;;7.50;99.90;;;;;;4982475;28;20404;-81
2022/01/27 08:01:33;;;;;;;28.33;10.65;;;7.60;99.90;;;;;;4991021;28;20227;-81
2022/01/27 08:03:59;;;;;;;26.67;10.80;;;7.60;99.90;;;;;;5008705;28;20030;-81
2022/01/27 08:06:24;;;;;;;23.88;12.07;;;7.60;99.90;;;;;;4991170;28;20112;-81
2022/01/27 08:08:50;;;;;;;25.30;12.10;;;7.70;99.90;;;;;;5004783;28;20034;-81
2022/01/27 08:11:18;;;;;;;31.33;11.27;;;7.60;99.90;;;;;;4979300;28;20263;-81
2022/01/27 08:13:44;;;;;;;29.80;12.00;;;7.70;99.90;;;;;;5008040;28;20049;-80
2022/01/27 08:16:10;;;;;;;28.67;11.57;;;7.70;99.90;;;;;;4981882;28;20042;-81
2022/01/27 08:18:35;;;;;;;32.33;12.57;;;7.70;99.90;;;;;;4978340;28;20128;-81
2022/01/27 08:21:01;;;;;;;28.30;11.80;;;7.70;99.90;;;;;;4998615;28;20164;-81
2022/01/27 08:23:28;;;;;;;29.08;11.50;;;7.70;99.90;;;;;;4995933;28;20046;-81
2022/01/27 08:26:03;;;;;;;32.33;10.82;;;7.80;99.90;;;;;;4989987;28;20117;-81
2022/01/27 08:28:36;;;;;;;27.58;11.98;;;7.80;99.90;;;;;;4984373;28;20031;-80
2022/01/27 08:31:03;;;;;;;29.42;12.68;;;7.80;99.90;;;;;;4979263;28;20058;-81
2022/01/27 08:33:31;;;;;;;32.63;11.68;;;7.80;99.90;;;;;;4984704;28;20421;-81
2022/01/27 08:35:58;;;;;;;27.80;10.85;;;7.90;99.90;;;;;;4991078;28;20073;-81
2022/01/27 08:38:25;;;;;;;27.45;9.85;;;7.90;99.90;;;;;;5003223;28;20087;-81
2022/01/27 08:40:51;;;;;;;24.20;9.18;;;8.00;99.90;;;;;;4984884;28;20052;-81
2022/01/27 08:43:17;;;;;;;30.10;10.90;;;8.00;99.90;;;;;;4988763;28;20038;-81
2022/01/27 08:45:44;;;;;;;29.73;10.63;;;8.10;99.90;;;;;;4980722;28;20057;-81
2022/01/27 08:48:13;;;;;;;26.08;9.25;;;8.10;99.90;;;;;;4979110;28;20038;-81
2022/01/27 08:50:39;;;;;;;24.98;8.60;;;8.10;99.90;;;;;;4975795;28;20034;-81
2022/01/27 08:53:05;;;;;;;27.15;8.85;;;8.10;99.90;;;;;;4990822;28;20608;-81
2022/01/27 08:55:31;;;;;;;21.02;7.05;;;8.10;99.90;;;;;;4982278;28;20188;-81
2022/01/27 08:57:56;;;;;;;23.63;8.75;;;8.20;99.90;;;;;;4985398;28;20142;-81
2022/01/27 09:00:25;;;;;;;18.73;6.50;;;8.20;99.90;;;;;;4972619;28;20071;-81
2022/01/27 09:02:51;;;;;;;24.13;8.18;;;8.20;99.90;;;;;;5002551;28;20077;-81
2022/01/27 09:05:17;;;;;;;23.48;7.65;;;8.30;99.90;;;;;;4996897;28;20038;-81
2022/01/27 09:07:43;;;;;;;22.80;7.95;;;8.30;99.90;;;;;;4975090;28;20061;-81
2022/01/27 09:10:09;;;;;;;16.52;7.05;;;8.30;99.90;;;;;;4991597;28;20042;-81
2022/01/27 09:12:34;;;;;;;21.95;7.47;;;8.30;99.90;;;;;;4986626;28;20552;-81
2022/01/27 09:15:04;;;;;;;22.25;8.15;;;8.30;99.90;;;;;;4988375;28;22710;-80
2022/01/27 09:17:38;;;;;;;25.17;7.40;;;8.30;99.90;;;;;;5015126;28;20072;-80
2022/01/27 09:20:04;;;;;;;20.43;6.77;;;8.30;99.90;;;;;;4983905;28;20038;-81
2022/01/27 09:22:30;;;;;;;20.67;7.00;;;8.30;99.90;;;;;;4988770;28;20065;-81
2022/01/27 09:24:59;;;;;;;15.57;7.03;;;8.30;99.90;;;;;;4971463;28;20033;-81
2022/01/27 09:27:26;;;;;;;20.42;6.28;;;8.40;99.90;;;;;;4997000;28;20038;-81
2022/01/27 09:29:53;;;;;;;18.50;7.68;;;8.30;99.90;;;;;;4985810;28;20457;-81
2022/01/27 09:32:19;;;;;;;22.10;6.95;;;8.40;99.90;;;;;;4972691;28;20037;-81
2022/01/27 09:34:46;;;;;;;22.27;7.72;;;8.40;99.90;;;;;;4994621;28;20033;-81
2022/01/27 09:37:13;;;;;;;17.38;6.20;;;8.40;99.90;;;;;;4993933;28;20488;-81
2022/01/27 09:39:39;;;;;;;16.75;5.88;;;8.40;99.90;;;;;;4990320;28;20042;-81
2022/01/27 09:42:06;;;;;;;20.05;6.05;;;8.50;99.90;;;;;;4997844;28;20042;-81
2022/01/27 09:44:34;;;;;;;16.48;6.30;;;8.50;99.90;;;;;;4988743;28;20377;-81
2022/01/27 09:47:03;;;;;;;22.25;6.68;;;8.50;99.90;;;;;;4996706;28;20281;-81
2022/01/27 09:49:34;;;;;;;19.35;5.80;;;8.50;99.90;;;;;;4990685;28;20042;-81
2022/01/27 09:52:00;;;;;;;21.27;6.00;;;8.50;99.90;;;;;;4984758;28;20181;-81
2022/01/27 09:54:26;;;;;;;19.67;5.88;;;8.60;99.90;;;;;;4980477;28;20041;-81
2022/01/27 09:56:53;;;;;;;15.75;5.38;;;8.70;99.90;;;;;;4976024;28;20507;-81
2022/01/27 09:59:21;;;;;;;21.33;6.50;;;8.80;99.90;;;;;;4977581;28;20034;-81
2022/01/27 10:02:05;;;;;;;18.42;5.10;;;8.80;99.90;;;;;;4969969;28;20049;-81
2022/01/27 10:05:01;;;;;;;15.68;5.28;;;8.90;99.90;;;;;;5001837;28;20033;-81
2022/01/27 10:07:32;;;;;;;14.50;5.13;;;8.90;99.90;;;;;;5002231;28;20465;-81
2022/01/27 10:10:05;;;;;;;17.00;4.63;;;9.00;99.90;;;;;;4989795;28;20037;-81
2022/01/27 10:12:37;;;;;;;14.88;4.70;;;8.90;99.90;;;;;;4986975;28;20455;-81
2022/01/27 10:15:09;;;;;;;17.58;5.85;;;8.90;99.90;;;;;;4974397;28;20038;-81
2022/01/27 10:17:38;;;;;;;14.68;4.65;;;9.00;99.90;;;;;;4990666;28;20113;-81
2022/01/27 10:20:17;;;;;;;17.23;5.32;;;8.90;99.90;;;;;;5001416;28;20041;-81
2022/01/27 10:23:10;;;;;;;20.65;5.43;;;8.90;99.90;;;;;;4975429;28;20080;-81
2022/01/27 10:25:46;;;;;;;26.00;6.15;;;8.90;99.90;;;;;;4984966;28;20034;-81
2022/01/27 10:28:48;;;;;;;16.92;4.53;;;8.80;99.90;;;;;;4992272;28;20050;-81
2022/01/27 10:31:24;;;;;;;18.02;5.03;;;8.80;99.90;;;;;;4978001;28;20115;-81
2022/01/27 10:34:04;;;;;;;19.45;5.22;;;8.80;99.90;;;;;;4998861;28;20045;-81
2022/01/27 10:36:31;;;;;;;13.82;4.32;;;8.80;99.90;;;;;;4999160;28;20614;-81
2022/01/27 10:38:59;;;;;;;20.30;5.72;;;8.90;99.90;;;;;;4976802;28;20141;-81
2022/01/27 10:41:27;;;;;;;15.40;4.25;;;8.90;99.90;;;;;;4987488;28;20042;-81
2022/01/27 10:44:10;;;;;;;14.30;4.78;;;8.90;99.90;;;;;;4990615;28;20475;-81
2022/01/27 10:46:39;;;;;;;19.55;5.43;;;8.90;99.90;;;;;;4983723;28;20102;-81
2022/01/27 10:49:16;;;;;;;18.10;5.28;;;8.90;99.90;;;;;;4995745;28;20045;-81
2022/01/27 10:51:50;;;;;;;23.20;5.75;;;8.90;99.90;;;;;;5005716;28;20258;-81
2022/01/27 10:54:33;;;;;;;18.65;4.85;;;9.00;99.90;;;;;;4987964;28;20129;-81
2022/01/27 10:57:01;;;;;;;18.95;5.38;;;9.10;99.90;;;;;;4975442;28;20049;-81
2022/01/27 10:59:28;;;;;;;13.90;4.28;;;9.10;99.90;;;;;;4981916;28;20054;-81
2022/01/27 11:01:55;;;;;;;16.50;4.88;;;9.10;99.90;;;;;;4992332;28;20052;-81
2022/01/27 11:04:31;;;;;;;16.30;5.10;;;9.20;99.90;;;;;;4989536;28;20042;-81
2022/01/27 11:07:01;;;;;;;12.65;3.30;;;9.20;99.90;;;;;;4979715;28;20041;-81
2022/01/27 11:09:33;;;;;;;15.30;4.68;;;9.20;99.90;;;;;;4973434;28;20034;-81
2022/01/27 11:11:59;;;;;;;11.88;3.83;;;9.30;99.90;;;;;;4976676;28;20080;-81
2022/01/27 11:14:25;;;;;;;16.60;3.58;;;9.30;99.90;;;;;;4979351;28;20104;-81
2022/01/27 11:16:57;;;;;;;18.33;3.80;;;9.30;99.90;;;;;;4985677;28;20477;-81
2022/01/27 11:22:22;;;;;;;15.45;4.20;;;9.30;99.90;;;;;;4993168;28;20034;-81
2022/01/27 11:27:34;;;;;;;12.43;3.75;;;9.30;99.90;;;;;;4991820;28;20065;-81
2022/01/27 11:30:24;;;;;;;16.48;4.32;;;9.30;99.90;;;;;;4972804;28;20042;-81
2022/01/27 11:32:59;;;;;;;17.00;4.13;;;9.30;99.90;;;;;;5000315;28;20037;-81
2022/01/27 11:35:26;;;;;;;14.20;4.50;;;9.40;99.90;;;;;;5006194;28;20756;-81
2022/01/27 11:37:54;;;;;;;14.38;3.30;;;9.50;99.90;;;;;;4992314;28;20058;-81
2022/01/27 11:40:23;;;;;;;16.20;4.45;;;9.40;99.90;;;;;;4986851;28;20049;-81
2022/01/27 11:42:55;;;;;;;12.82;3.28;;;9.50;99.90;;;;;;4988381;28;20056;-82
2022/01/27 11:45:20;;;;;;;19.48;4.15;;;9.50;99.90;;;;;;4981373;28;20954;-81
2022/01/27 11:48:06;;;;;;;10.27;3.10;;;9.50;99.90;;;;;;4993953;28;20358;-81
2022/01/27 11:50:55;;;;;;;15.35;3.65;;;9.40;99.90;;;;;;4976134;28;20176;-81
2022/01/27 11:53:48;;;;;;;17.63;3.55;;;9.40;99.90;;;;;;4981228;28;20321;-80
2022/01/27 11:56:23;;;;;;;17.02;3.47;;;9.50;99.90;;;;;;4983517;28;20451;-81
2022/01/27 11:59:04;;;;;;;18.02;4.13;;;9.40;99.90;;;;;;4990467;28;20048;-81
2022/01/27 12:01:35;;;;;;;19.08;3.40;;;9.50;99.90;;;;;;4986188;28;20037;-81
2022/01/27 12:04:07;;;;;;;22.10;4.13;;;9.50;99.90;;;;;;4984960;28;20042;-81
2022/01/27 12:06:35;;;;;;;17.48;3.78;;;9.50;99.90;;;;;;4984375;28;20038;-82
2022/01/27 12:09:19;;;;;;;15.02;3.40;;;9.40;99.90;;;;;;4993492;28;20042;-81
2022/01/27 12:12:04;;;;;;;16.15;3.53;;;9.40;99.90;;;;;;4981853;28;20073;-81
2022/01/27 12:14:35;;;;;;;17.70;4.63;;;9.50;99.90;;;;;;4975568;28;20065;-81
2022/01/27 12:17:07;;;;;;;22.27;5.05;;;9.40;99.90;;;;;;4995876;28;20208;-81
2022/01/27 12:19:54;;;;;;;16.75;3.38;;;9.40;99.90;;;;;;4991727;28;20061;-81
2022/01/27 12:22:24;;;;;;;14.05;3.53;;;9.40;99.90;;;;;;4973187;28;20409;-81
2022/01/27 12:24:53;;;;;;;19.45;3.92;;;9.40;99.90;;;;;;4992339;28;20223;-81
2022/01/27 12:27:19;;;;;;;16.80;3.40;;;9.40;99.90;;;;;;4981781;28;20108;-81
2022/01/27 12:29:53;;;;;;;19.98;4.28;;;9.50;99.90;;;;;;4974988;28;20053;-81
2022/01/27 12:32:25;;;;;;;17.48;3.40;;;9.50;99.90;;;;;;4979453;28;20095;-82
2022/01/27 12:35:09;;;;;;;16.83;3.80;;;9.40;99.90;;;;;;4991281;28;20270;-81
2022/01/27 12:37:37;;;;;;;16.20;3.65;;;9.50;99.90;;;;;;4987858;28;20148;-81
2022/01/27 12:40:21;;;;;;;21.77;4.20;;;9.40;99.90;;;;;;5003911;28;20410;-81
2022/01/27 12:43:01;;;;;;;13.32;2.63;;;9.50;99.90;;;;;;4997860;28;20112;-82
2022/01/27 12:45:30;;;;;;;16.70;3.50;;;9.40;99.90;;;;;;4979370;28;20033;-81
2022/01/27 12:48:07;;;;;;;19.52;3.60;;;9.50;99.90;;;;;;4995868;28;20131;-82
2022/01/27 12:50:35;;;;;;;14.88;3.25;;;9.50;99.90;;;;;;4978946;28;20038;-81
2022/01/27 12:53:07;;;;;;;15.23;3.58;;;9.40;99.90;;;;;;4985573;28;20048;-81
2022/01/27 12:55:39;;;;;;;21.60;3.05;;;9.50;99.90;;;;;;4987089;28;20138;-82
2022/01/27 12:58:13;;;;;;;17.80;3.20;;;9.50;99.90;;;;;;4980424;28;20041;-81
2022/01/27 13:00:42;;;;;;;17.27;3.60;;;9.50;99.90;;;;;;4977157;28;20038;-82
2022/01/27 13:03:09;;;;;;;12.88;3.10;;;9.50;99.90;;;;;;4983006;28;20117;-82
2022/01/27 13:05:39;;;;;;;18.83;3.53;;;9.50;99.90;;;;;;4990864;28;20130;-81
2022/01/27 13:08:10;;;;;;;20.00;3.80;;;9.50;99.90;;;;;;4992532;28;21086;-81
2022/01/27 13:10:37;;;;;;;15.48;3.55;;;9.60;99.90;;;;;;4991545;28;20205;-82
2022/01/27 13:13:08;;;;;;;15.20;3.65;;;9.60;99.90;;;;;;4991701;28;20130;-82
2022/01/27 13:15:34;;;;;;;21.88;3.88;;;9.60;99.90;;;;;;4996685;28;20125;-81
2022/01/27 13:18:06;;;;;;;17.13;3.83;;;9.50;99.90;;;;;;4992931;28;20528;-81
2022/01/27 13:21:08;;;;;;;23.23;3.47;;;9.50;99.90;;;;;;4973267;28;20100;-82
2022/01/27 13:25:55;;;;;;;19.20;4.10;;;9.60;99.90;;;;;;4985651;28;20130;-81
2022/01/27 13:28:26;;;;;;;18.58;3.70;;;9.50;99.90;;;;;;4980969;28;20034;-82
2022/01/27 13:31:14;;;;;;;23.77;3.88;;;9.50;99.90;;;;;;4986763;28;20137;-81
2022/01/27 13:33:46;;;;;;;12.95;2.55;;;9.50;99.90;;;;;;4995974;28;20564;-81
2022/01/27 13:36:22;;;;;;;17.90;3.50;;;9.40;99.90;;;;;;5011267;28;20045;-81
2022/01/27 13:41:35;;;;;;;16.38;3.17;;;9.40;99.90;;;;;;4994111;28;20069;-82
2022/01/27 13:44:19;;;;;;;17.20;4.72;;;9.50;99.90;;;;;;4982497;28;20060;-81